createdAt,value
2023-03-07T00:00:08.645Z,9.18
2023-03-07T00:02:56.572Z,7.95
2023-03-07T00:05:24.763Z,6.88
2023-03-07T00:07:52.733Z,6.11
2023-03-07T00:10:20.843Z,5.48
2023-03-07T00:12:48.867Z,4.99
2023-03-07T00:15:17.348Z,4.48
2023-03-07T00:17:45.757Z,4.01
2023-03-07T00:20:16.665Z,3.56
2023-03-07T00:22:47.033Z,3.15
2023-03-07T00:25:15.411Z,2.81
2023-03-07T00:27:43.542Z,2.51
2023-03-07T00:30:14.894Z,2.61
2023-03-07T00:32:43.196Z,4.38
2023-03-07T00:35:11.345Z,5.97
2023-03-07T00:37:39.411Z,6.90
2023-03-07T00:40:09.584Z,7.47
2023-03-07T00:42:37.606Z,7.67
2023-03-07T00:45:06.125Z,6.74
2023-03-07T00:47:34.765Z,5.68
2023-03-07T00:50:04.472Z,4.90
2023-03-07T00:52:33.877Z,4.33
2023-03-07T00:55:02.069Z,3.89
2023-03-07T00:57:30.535Z,3.54
2023-03-07T00:59:58.609Z,3.23
2023-03-07T01:02:26.595Z,2.95
2023-03-07T01:04:54.852Z,2.70
2023-03-07T01:07:22.925Z,2.46
2023-03-07T01:09:53.312Z,2.24
2023-03-07T01:12:21.415Z,2.04
2023-03-07T01:14:51.121Z,1.87
2023-03-07T01:17:19.237Z,1.92
2023-03-07T01:19:47.272Z,3.37
2023-03-07T01:22:15.337Z,4.89
2023-03-07T01:24:43.515Z,5.90
2023-03-07T01:27:11.990Z,6.51
2023-03-07T01:29:40.400Z,6.76
2023-03-07T01:32:08.880Z,5.85
2023-03-07T01:34:37.131Z,4.85
2023-03-07T01:37:05.116Z,4.11
2023-03-07T01:39:33.619Z,3.55
2023-03-07T01:42:05.849Z,3.10
2023-03-07T01:45:05.775Z,2.75
2023-03-07T01:47:43.764Z,2.38
2023-03-07T01:50:17.690Z,2.13
2023-03-07T01:53:08.791Z,1.89
2023-03-07T01:55:37.671Z,1.66
2023-03-07T01:58:15.777Z,1.49
2023-03-07T02:00:45.403Z,1.33
2023-03-07T02:03:26.461Z,1.47
2023-03-07T02:05:58.774Z,3.28
2023-03-07T02:08:30.900Z,4.96
2023-03-07T02:10:58.993Z,6.10
2023-03-07T02:13:27.157Z,6.84
2023-03-07T02:15:56.464Z,7.12
2023-03-07T02:18:28.656Z,6.14
2023-03-07T02:21:09.601Z,4.99
2023-03-07T02:23:43.902Z,4.09
2023-03-07T02:26:30.976Z,3.46
2023-03-07T02:29:00.833Z,2.93
2023-03-07T02:31:29.513Z,2.53
2023-03-07T02:33:57.506Z,2.17
2023-03-07T02:36:30.773Z,1.84
2023-03-07T02:39:09.764Z,1.52
2023-03-07T02:41:40.472Z,1.24
2023-03-07T02:44:14.594Z,0.98
2023-03-07T02:46:42.616Z,0.75
2023-03-07T02:49:10.700Z,0.55
2023-03-07T02:51:38.724Z,0.36
2023-03-07T02:54:08.603Z,0.48
2023-03-07T02:56:36.970Z,2.19
2023-03-07T02:59:05.458Z,4.10
2023-03-07T03:01:33.527Z,5.40
2023-03-07T03:04:01.585Z,6.27
2023-03-07T03:06:29.765Z,6.63
2023-03-07T03:08:58.651Z,5.61
2023-03-07T03:11:27.632Z,4.39
2023-03-07T03:13:55.717Z,3.50
2023-03-07T03:16:23.723Z,2.84
2023-03-07T03:18:51.889Z,2.33
2023-03-07T03:21:20.637Z,1.90
2023-03-07T03:23:48.809Z,1.54
2023-03-07T03:26:17.010Z,1.21
2023-03-07T03:28:45.051Z,0.92
2023-03-07T03:31:17.063Z,0.65
2023-03-07T03:33:45.513Z,0.41
2023-03-07T03:36:16.418Z,0.20
2023-03-07T03:38:45.554Z,0.00
2023-03-07T03:41:18.471Z,-0.18
2023-03-07T03:43:48.259Z,-0.38
2023-03-07T03:46:17.164Z,-0.55
2023-03-07T03:48:52.699Z,-0.36
2023-03-07T03:51:22.807Z,1.61
2023-03-07T03:53:51.670Z,3.44
2023-03-07T03:56:21.721Z,4.63
2023-03-07T03:58:55.931Z,5.43
2023-03-07T04:01:26.656Z,5.71
2023-03-07T04:03:55.540Z,4.67
2023-03-07T04:06:29.246Z,3.60
2023-03-07T04:08:58.030Z,2.83
2023-03-07T04:11:26.709Z,2.31
2023-03-07T04:13:54.873Z,1.90
2023-03-07T04:16:23.910Z,1.58
2023-03-07T04:18:52.662Z,1.32
2023-03-07T04:21:22.378Z,1.08
2023-03-07T04:23:55.769Z,0.88
2023-03-07T04:26:26.074Z,0.70
2023-03-07T04:28:54.160Z,0.54
2023-03-07T04:31:49.018Z,0.39
2023-03-07T04:34:17.439Z,0.25
2023-03-07T04:36:45.539Z,0.14
2023-03-07T04:39:14.002Z,0.36
2023-03-07T04:41:42.468Z,2.26
2023-03-07T04:44:17.406Z,4.22
2023-03-07T04:46:45.468Z,5.36
2023-03-07T04:49:13.888Z,6.16
2023-03-07T04:51:44.044Z,6.53
2023-03-07T04:54:14.589Z,5.48
2023-03-07T04:56:42.915Z,4.36
2023-03-07T04:59:12.378Z,3.54
2023-03-07T05:01:40.896Z,2.93
2023-03-07T05:04:09.360Z,2.47
2023-03-07T05:06:39.553Z,2.10
2023-03-07T05:09:08.157Z,1.78
2023-03-07T05:11:36.205Z,1.47
2023-03-07T05:14:04.601Z,1.19
2023-03-07T05:16:33.804Z,0.96
2023-03-07T05:19:02.576Z,0.74
2023-03-07T05:21:32.313Z,0.53
2023-03-07T05:24:00.794Z,0.36
2023-03-07T05:26:29.492Z,0.56
2023-03-07T05:28:57.522Z,2.37
2023-03-07T05:31:25.703Z,4.09
2023-03-07T05:33:53.895Z,5.21
2023-03-07T05:36:21.935Z,5.97
2023-03-07T05:38:50.607Z,6.26
2023-03-07T05:41:19.986Z,5.25
2023-03-07T05:43:48.313Z,4.08
2023-03-07T05:46:16.393Z,3.25
2023-03-07T05:48:44.555Z,2.64
2023-03-07T05:51:13.096Z,2.21
2023-03-07T05:53:43.685Z,1.85
2023-03-07T05:56:12.032Z,1.54
2023-03-07T05:58:40.623Z,1.26
2023-03-07T06:01:08.992Z,1.03
2023-03-07T06:03:38.761Z,0.83
2023-03-07T06:06:07.492Z,0.63
2023-03-07T06:08:35.559Z,0.45
2023-03-07T06:11:04.107Z,0.61
2023-03-07T06:13:32.317Z,2.32
2023-03-07T06:16:00.258Z,3.95
2023-03-07T06:18:28.364Z,4.95
2023-03-07T06:21:05.406Z,5.44
2023-03-07T06:23:37.231Z,4.56
2023-03-07T06:26:10.390Z,3.60
2023-03-07T06:28:42.713Z,2.93
2023-03-07T06:31:13.941Z,2.44
2023-03-07T06:33:43.461Z,2.07
2023-03-07T06:36:14.689Z,1.79
2023-03-07T06:38:44.061Z,1.56
2023-03-07T06:41:12.276Z,1.42
2023-03-07T06:43:41.033Z,1.29
2023-03-07T06:46:09.318Z,1.19
2023-03-07T06:48:40.596Z,1.09
2023-03-07T06:51:11.386Z,1.03
2023-03-07T06:53:41.398Z,0.98
2023-03-07T06:56:10.218Z,1.31
2023-03-07T06:58:38.895Z,3.08
2023-03-07T07:01:07.284Z,4.58
2023-03-07T07:03:36.337Z,5.61
2023-03-07T07:06:04.555Z,6.39
2023-03-07T07:08:32.687Z,5.72
2023-03-07T07:11:00.757Z,4.76
2023-03-07T07:13:29.776Z,4.06
2023-03-07T07:16:03.293Z,3.63
2023-03-07T07:18:32.132Z,3.33
2023-03-07T07:21:00.232Z,3.08
2023-03-07T07:23:29.215Z,2.86
2023-03-07T07:25:57.165Z,2.70
2023-03-07T07:28:25.236Z,2.56
2023-03-07T07:30:53.514Z,2.45
2023-03-07T07:33:21.571Z,2.38
2023-03-07T07:35:50.701Z,2.35
2023-03-07T07:38:19.365Z,2.33
2023-03-07T07:40:47.349Z,2.29
2023-03-07T07:43:17.661Z,2.60
2023-03-07T07:45:56.116Z,4.75
2023-03-07T07:48:24.491Z,6.36
2023-03-07T07:50:52.831Z,7.05
2023-03-07T07:53:21.523Z,6.31
2023-03-07T07:55:49.896Z,5.34
2023-03-07T07:58:18.379Z,4.66
2023-03-07T08:00:46.907Z,4.22
2023-03-07T08:03:15.157Z,3.90
2023-03-07T08:05:48.838Z,3.65
2023-03-07T08:08:18.997Z,3.43
2023-03-07T08:10:47.979Z,3.30
2023-03-07T08:13:17.915Z,3.29
2023-03-07T08:15:46.015Z,3.33
2023-03-07T08:18:14.216Z,3.36
2023-03-07T08:20:42.283Z,3.40
2023-03-07T08:23:10.260Z,3.46
2023-03-07T08:25:38.736Z,3.87
2023-03-07T08:28:06.736Z,5.73
2023-03-07T08:30:37.062Z,7.33
2023-03-07T08:33:05.202Z,8.30
2023-03-07T08:35:33.425Z,7.84
2023-03-07T08:38:01.655Z,7.13
2023-03-07T08:40:31.359Z,6.66
2023-03-07T08:42:59.781Z,6.34
2023-03-07T08:45:28.030Z,6.06
2023-03-07T08:47:57.623Z,5.77
2023-03-07T08:50:28.508Z,5.45
2023-03-07T08:52:57.890Z,5.19
2023-03-07T08:55:26.341Z,5.01
2023-03-07T08:57:54.309Z,4.84
2023-03-07T09:00:22.381Z,4.74
2023-03-07T09:02:50.317Z,4.71
2023-03-07T09:05:18.435Z,5.08
2023-03-07T09:07:46.376Z,7.23
2023-03-07T09:10:14.358Z,9.42
2023-03-07T09:12:42.262Z,10.59
2023-03-07T09:15:10.827Z,10.06
2023-03-07T09:17:39.296Z,9.26
2023-03-07T09:20:09.244Z,8.72
2023-03-07T09:22:37.823Z,8.38
2023-03-07T09:25:06.586Z,8.09
2023-03-07T09:27:34.750Z,7.72
2023-03-07T09:30:02.845Z,7.41
2023-03-07T09:32:33.734Z,7.22
2023-03-07T09:35:02.024Z,7.14
2023-03-07T09:37:30.016Z,7.11
2023-03-07T09:39:57.963Z,7.08
2023-03-07T09:43:09.040Z,7.06
2023-03-07T09:46:09.209Z,7.11
2023-03-07T09:48:55.473Z,7.15
2023-03-07T09:51:40.279Z,7.18
2023-03-07T09:54:20.326Z,7.22
2023-03-07T09:56:58.517Z,7.21
2023-03-07T09:59:43.534Z,7.87
2023-03-07T10:02:28.826Z,10.31
2023-03-07T10:05:16.252Z,11.81
2023-03-07T10:07:44.363Z,11.22
2023-03-07T10:10:17.850Z,10.45
2023-03-07T10:12:51.883Z,9.81
2023-03-07T10:15:46.432Z,9.35
2023-03-07T10:18:14.603Z,9.00
2023-03-07T10:20:52.121Z,8.81
2023-03-07T10:23:41.575Z,8.58
2023-03-07T10:26:24.357Z,8.35
2023-03-07T10:28:52.856Z,8.17
2023-03-07T10:31:25.796Z,8.12
2023-03-07T10:33:54.770Z,8.03
2023-03-07T10:36:29.226Z,7.86
2023-03-07T10:39:19.036Z,7.68
2023-03-07T10:41:47.008Z,7.50
2023-03-07T10:44:18.621Z,7.35
2023-03-07T10:46:55.688Z,7.41
2023-03-07T10:49:37.749Z,9.34
2023-03-07T10:52:29.364Z,11.35
2023-03-07T10:55:33.887Z,12.09
2023-03-07T10:58:28.498Z,10.96
2023-03-07T11:01:03.725Z,10.08
2023-03-07T11:03:54.134Z,9.66
2023-03-07T11:06:40.593Z,9.36
2023-03-07T11:09:19.452Z,9.06
2023-03-07T11:11:58.102Z,8.78
2023-03-07T11:14:27.980Z,8.53
2023-03-07T11:16:59.387Z,8.35
2023-03-07T11:19:34.966Z,8.21
2023-03-07T11:22:16.048Z,8.00
2023-03-07T11:25:00.517Z,7.77
2023-03-07T11:27:48.046Z,7.53
2023-03-07T11:30:26.743Z,7.28
2023-03-07T11:33:22.869Z,7.70
2023-03-07T11:36:14.186Z,10.08
2023-03-07T11:39:12.303Z,10.98
2023-03-07T11:41:48.030Z,10.02
2023-03-07T11:44:41.224Z,9.21
2023-03-07T11:47:44.700Z,8.60
2023-03-07T11:50:23.414Z,8.21
2023-03-07T11:53:20.070Z,7.97
2023-03-07T11:56:12.737Z,7.75
2023-03-07T11:58:47.216Z,7.60
2023-03-07T12:01:40.365Z,7.51
2023-03-07T12:04:30.351Z,7.86
2023-03-07T12:07:16.753Z,9.80
2023-03-07T12:10:16.572Z,10.93
2023-03-07T12:13:00.614Z,10.25
2023-03-07T12:15:57.045Z,9.60
2023-03-07T12:18:53.499Z,9.15
2023-03-07T12:21:33.333Z,8.75
2023-03-07T12:24:24.762Z,8.48
2023-03-07T12:27:26.236Z,8.30
2023-03-07T12:30:01.862Z,8.24
2023-03-07T12:32:34.649Z,8.26
2023-03-07T12:35:23.750Z,8.32
2023-03-07T12:37:51.778Z,8.39
2023-03-07T12:40:29.264Z,8.44
2023-03-07T12:43:09.212Z,8.53
2023-03-07T12:46:00.648Z,8.66
2023-03-07T12:48:34.658Z,8.80
2023-03-07T12:51:18.921Z,8.90
2023-03-07T12:53:55.212Z,8.93
2023-03-07T12:56:53.445Z,8.96
2023-03-07T12:59:22.325Z,8.98
2023-03-07T13:02:25.109Z,8.99
2023-03-07T13:04:53.592Z,9.00
2023-03-07T13:07:27.651Z,8.99
2023-03-07T13:09:59.292Z,8.95
2023-03-07T13:12:31.816Z,8.93
2023-03-07T13:15:06.469Z,8.92
2023-03-07T13:17:38.311Z,8.91
2023-03-07T13:20:15.292Z,8.94
2023-03-07T13:22:43.336Z,8.96
2023-03-07T13:25:20.473Z,8.94
2023-03-07T13:27:54.148Z,8.89
2023-03-07T13:30:24.614Z,8.84
2023-03-07T13:32:52.647Z,8.78
2023-03-07T13:35:32.911Z,8.73
2023-03-07T13:38:03.688Z,8.65
2023-03-07T13:40:47.368Z,8.60
2023-03-07T13:43:27.242Z,8.52
2023-03-07T13:45:59.857Z,8.46
2023-03-07T13:48:31.145Z,8.41
2023-03-07T13:50:59.044Z,8.38
2023-03-07T13:53:33.329Z,8.36
2023-03-07T13:56:15.862Z,8.36
2023-03-07T13:58:56.617Z,8.35
2023-03-07T14:01:27.498Z,8.34
2023-03-07T14:04:11.702Z,8.35
2023-03-07T14:06:50.489Z,8.33
2023-03-07T14:09:29.433Z,8.27
2023-03-07T14:12:12.681Z,8.18
2023-03-07T14:14:52.850Z,8.07
2023-03-07T14:17:42.306Z,7.98
2023-03-07T14:20:22.288Z,7.88
2023-03-07T14:23:03.528Z,7.81
2023-03-07T14:25:56.218Z,7.72
2023-03-07T14:28:28.786Z,7.67
2023-03-07T14:31:00.079Z,7.63
2023-03-07T14:33:37.460Z,7.56
2023-03-07T14:36:26.496Z,7.52
2023-03-07T14:38:57.392Z,7.50
2023-03-07T14:41:31.836Z,7.49
2023-03-07T14:44:38.689Z,7.47
2023-03-07T14:47:29.809Z,7.44
2023-03-07T14:50:26.890Z,7.42
2023-03-07T14:52:59.360Z,7.40
2023-03-07T14:55:35.508Z,7.38
2023-03-07T14:58:04.481Z,7.37
2023-03-07T15:00:34.838Z,7.36
2023-03-07T15:03:08.170Z,7.32
2023-03-07T15:05:52.038Z,7.28
2023-03-07T15:08:22.765Z,7.24
2023-03-07T15:11:03.237Z,7.21
2023-03-07T15:13:55.442Z,7.17
2023-03-07T15:16:34.498Z,7.13
2023-03-07T15:19:27.959Z,7.09
2023-03-07T15:21:59.617Z,7.04
2023-03-07T15:24:35.979Z,6.99
2023-03-07T15:27:06.628Z,6.95
2023-03-07T15:29:34.893Z,6.91
2023-03-07T15:32:07.559Z,6.89
2023-03-07T15:34:40.077Z,6.88
2023-03-07T15:37:24.195Z,6.87
2023-03-07T15:40:22.420Z,6.84
2023-03-07T15:42:53.912Z,6.81
2023-03-07T15:45:33.916Z,6.78
2023-03-07T15:48:18.788Z,6.75
2023-03-07T15:50:59.072Z,6.72
2023-03-07T15:53:30.665Z,6.67
2023-03-07T15:56:02.067Z,6.62
2023-03-07T15:58:31.120Z,6.58
2023-03-07T16:01:20.459Z,6.53
2023-03-07T16:04:01.562Z,7.06
2023-03-07T16:06:38.415Z,9.37
2023-03-07T16:09:06.786Z,11.21
2023-03-07T16:11:37.680Z,12.17
2023-03-07T16:14:14.086Z,12.56
2023-03-07T16:16:44.362Z,11.64
2023-03-07T16:19:12.592Z,10.64
2023-03-07T16:21:41.212Z,9.92
2023-03-07T16:24:09.566Z,9.40
2023-03-07T16:26:39.343Z,8.97
2023-03-07T16:29:08.988Z,8.60
2023-03-07T16:31:36.992Z,8.28
2023-03-07T16:34:06.687Z,7.99
2023-03-07T16:36:34.676Z,7.73
2023-03-07T16:39:02.634Z,7.51
2023-03-07T16:41:30.654Z,7.29
2023-03-07T16:43:59.747Z,7.10
2023-03-07T16:46:29.055Z,6.91
2023-03-07T16:48:57.061Z,6.75
2023-03-07T16:51:26.254Z,6.60
2023-03-07T16:58:31.109Z,6.25
2023-03-07T17:00:59.997Z,6.12
2023-03-07T17:03:29.907Z,6.01
2023-03-07T17:05:57.889Z,5.91
2023-03-07T17:08:25.832Z,5.83
2023-03-07T17:10:53.803Z,5.76
2023-03-07T17:13:21.751Z,5.70
2023-03-07T17:15:50.122Z,5.92
2023-03-07T17:18:18.020Z,7.69
2023-03-07T17:20:45.906Z,9.54
2023-03-07T17:23:13.800Z,10.81
2023-03-07T17:25:41.713Z,11.30
2023-03-07T17:28:14.334Z,10.46
2023-03-07T17:30:45.146Z,9.46
2023-03-07T17:33:14.999Z,8.75
2023-03-07T17:35:42.974Z,8.23
2023-03-07T17:38:10.841Z,7.85
2023-03-07T17:40:38.824Z,7.54
2023-03-07T17:43:06.831Z,7.27
2023-03-07T17:45:34.842Z,7.05
2023-03-07T17:48:02.858Z,6.85
2023-03-07T17:50:30.945Z,6.67
2023-03-07T17:52:59.045Z,6.52
2023-03-07T17:55:27.464Z,6.40
2023-03-07T17:57:55.628Z,6.29
2023-03-07T18:00:24.283Z,6.19
2023-03-07T18:02:54.273Z,6.08
2023-03-07T18:05:26.076Z,5.98
2023-03-07T18:07:54.528Z,5.87
2023-03-07T18:10:23.097Z,5.78
2023-03-07T18:12:53.676Z,5.68
2023-03-07T18:15:22.432Z,5.60
2023-03-07T18:17:50.529Z,5.55
2023-03-07T18:20:19.831Z,5.85
2023-03-07T18:22:48.191Z,7.87
2023-03-07T18:25:17.737Z,9.74
2023-03-07T18:27:46.076Z,10.56
2023-03-07T18:30:14.798Z,9.81
2023-03-07T18:32:42.842Z,8.88
2023-03-07T18:35:12.128Z,8.20
2023-03-07T18:37:40.016Z,7.74
2023-03-07T18:40:08.765Z,7.38
2023-03-07T18:42:36.814Z,7.11
2023-03-07T18:45:05.887Z,6.89
2023-03-07T18:47:33.783Z,6.71
2023-03-07T18:50:01.702Z,6.55
2023-03-07T18:52:29.618Z,6.40
2023-03-07T18:54:57.478Z,6.26
2023-03-07T18:57:25.385Z,6.12
2023-03-07T18:59:53.707Z,6.00
2023-03-07T19:02:21.637Z,5.91
2023-03-07T19:04:49.740Z,5.84
2023-03-07T19:07:17.654Z,5.77
2023-03-07T19:09:48.452Z,5.74
2023-03-07T19:12:16.736Z,5.70
2023-03-07T19:14:44.681Z,5.68
2023-03-07T19:17:12.609Z,6.04
2023-03-07T19:19:40.569Z,7.88
2023-03-07T19:22:08.858Z,9.74
2023-03-07T19:24:36.759Z,10.67
2023-03-07T19:27:04.665Z,10.07
2023-03-07T19:29:32.957Z,9.14
2023-03-07T19:32:00.889Z,8.47
2023-03-07T19:34:28.802Z,7.99
2023-03-07T19:36:56.912Z,7.66
2023-03-07T19:39:24.797Z,7.40
2023-03-07T19:41:53.358Z,7.16
2023-03-07T19:44:21.948Z,6.94
2023-03-07T19:46:49.865Z,6.75
2023-03-07T19:49:18.178Z,6.59
2023-03-07T19:51:46.071Z,6.45
2023-03-07T19:54:15.168Z,6.34
2023-03-07T19:56:45.113Z,6.28
2023-03-07T19:59:14.049Z,7.50
2023-03-07T20:01:42.070Z,9.49
2023-03-07T20:04:14.550Z,10.49
2023-03-07T20:11:16.665Z,8.40
2023-03-07T20:13:46.729Z,7.95
2023-03-07T20:16:17.420Z,7.62
2023-03-07T20:18:52.837Z,7.35
2023-03-07T20:21:27.861Z,7.09
2023-03-07T20:23:59.732Z,6.85
2023-03-07T20:26:34.405Z,7.15
2023-03-07T20:29:05.511Z,9.08
2023-03-07T20:31:34.698Z,9.93
2023-03-07T20:34:03.547Z,9.19
2023-03-07T20:36:36.788Z,8.40
2023-03-07T20:39:08.554Z,7.85
2023-03-07T20:41:36.541Z,7.46
2023-03-07T20:44:07.032Z,7.19
2023-03-07T20:46:36.039Z,6.94
2023-03-07T20:49:04.858Z,7.14
2023-03-07T20:51:36.163Z,9.06
2023-03-07T20:54:08.598Z,10.80
2023-03-07T20:56:39.278Z,11.48
2023-03-07T20:59:09.303Z,10.48
2023-03-07T21:01:37.351Z,9.46
2023-03-07T21:04:12.287Z,8.73
2023-03-07T21:06:42.729Z,8.18
2023-03-07T21:09:12.479Z,7.78
2023-03-07T21:11:47.215Z,7.45
2023-03-07T21:14:17.357Z,7.16
2023-03-07T21:16:45.413Z,7.24
2023-03-07T21:19:16.227Z,9.02
2023-03-07T21:26:22.209Z,10.52
2023-03-07T21:33:17.364Z,8.13
2023-03-07T21:35:45.467Z,7.69
2023-03-07T21:38:14.546Z,7.32
2023-03-07T21:40:43.346Z,7.02
2023-03-07T21:43:12.263Z,6.76
2023-03-07T21:45:41.491Z,6.93
2023-03-07T21:48:11.244Z,8.83
2023-03-07T21:50:43.324Z,10.55
2023-03-07T21:53:13.267Z,11.31
2023-03-07T21:55:50.262Z,10.48
2023-03-07T21:58:19.809Z,9.39
2023-03-07T22:00:49.308Z,8.63
2023-03-07T22:03:18.459Z,8.06
2023-03-07T22:05:46.553Z,7.62
2023-03-07T22:08:21.259Z,7.24
2023-03-07T22:11:01.289Z,6.91
2023-03-07T22:13:35.307Z,7.12
2023-03-07T22:20:36.287Z,9.66
2023-03-07T22:23:07.729Z,8.74
2023-03-07T22:25:38.281Z,8.01
2023-03-07T22:28:09.276Z,7.55
2023-03-07T22:30:40.299Z,7.20
2023-03-07T22:33:11.106Z,7.86
2023-03-07T22:35:42.745Z,9.69
2023-03-07T22:38:16.691Z,10.64
2023-03-07T22:40:48.311Z,9.92
2023-03-07T22:43:20.359Z,9.03
2023-03-07T22:45:53.350Z,8.38
2023-03-07T22:48:24.339Z,7.92
2023-03-07T22:50:55.341Z,7.56
2023-03-07T22:53:29.324Z,7.64
2023-03-07T22:56:00.754Z,9.27
2023-03-07T22:58:31.335Z,10.73
2023-03-07T23:01:02.351Z,11.24
2023-03-07T23:03:34.370Z,10.24
2023-03-07T23:13:41.293Z,7.03
2023-03-07T23:16:12.590Z,6.62
2023-03-07T23:18:42.245Z,6.31
2023-03-07T23:21:12.829Z,6.29
2023-03-07T23:23:41.219Z,7.77
2023-03-07T23:26:09.191Z,9.29
2023-03-07T23:28:37.201Z,10.00
2023-03-07T23:31:05.340Z,9.21
2023-03-07T23:33:34.017Z,8.22
2023-03-07T23:36:02.080Z,7.46
2023-03-07T23:38:30.154Z,6.90
2023-03-07T23:40:58.532Z,6.47
2023-03-07T23:43:26.643Z,6.11
2023-03-07T23:45:54.690Z,5.81
2023-03-07T23:48:22.750Z,5.83
2023-03-07T23:50:50.945Z,7.38
2023-03-07T23:53:18.888Z,9.07
2023-03-07T23:55:46.963Z,10.11
2023-03-07T23:58:15.137Z,10.52
